MRSX weather

Sixaola Airport
Sixaola, Limon, Costa Rica

Public forecast

Using degrees Celsius for public forecast. Weather courtesy of forecast.io.

METAR (pilot weather report)

Report is more than 6 hours old.

Closest report is Cap Manuel NiƱo International Airport, 7.5 nm (13.8 km) ESE. Retrieved 2019/05/06 01:00 UTC (21 days ago):

MPCH 060100Z 00000KT 9999 SCT030 OVC080 27/26 Q1011

TAF (pilot weather forecast)

Forecast is more than 12 hours old.

Closest forecast is Bocas Del Toro International Airport, 24.6 nm (45.6 km) ESE. Retrieved 2011/07/19 06:30 UTC (8 years ago):

TAF TAF MPBO 190500Z 1906/1918 00000KT 9999 FEW020 BECMG 1912/1916 30004KT 9000 SCT018 BKN100 TEMPO 1916/1918 FEW018CB